createdAt,value
2022-10-26T00:04:02.520Z,15.85
2022-10-26T00:09:05.199Z,15.95
2022-10-26T00:14:07.870Z,13.13
2022-10-26T00:19:10.585Z,20.10
2022-10-26T00:24:13.645Z,17.13
2022-10-26T00:29:17.443Z,17.77
2022-10-26T00:34:20.169Z,15.10
2022-10-26T00:39:22.918Z,16.90
2022-10-26T00:44:43.904Z,12.02
2022-10-26T00:49:48.586Z,13.65
2022-10-26T00:54:52.215Z,14.93
2022-10-26T00:59:55.837Z,15.00
2022-10-26T01:04:58.714Z,11.60
2022-10-26T01:10:02.080Z,16.25
2022-10-26T01:15:06.518Z,12.65
2022-10-26T01:20:39.808Z,15.40
2022-10-26T01:25:48.483Z,21.73
2022-10-26T01:30:51.589Z,21.55
2022-10-26T01:36:03.599Z,15.45
2022-10-26T01:41:34.278Z,20.30
2022-10-26T01:46:42.961Z,15.80
2022-10-26T01:51:47.832Z,18.90
2022-10-26T02:02:18.043Z,15.93
2022-10-26T02:07:37.471Z,17.10
2022-10-26T02:12:59.794Z,11.27
2022-10-26T02:18:32.907Z,16.17
2022-10-26T02:23:38.009Z,16.63
2022-10-26T02:28:44.286Z,14.07
2022-10-26T02:38:58.420Z,11.23
2022-10-26T02:44:25.436Z,9.40
2022-10-26T02:49:28.768Z,14.05
2022-10-26T02:54:35.841Z,19.13
2022-10-26T02:59:42.574Z,15.10
2022-10-26T03:04:45.444Z,14.80
2022-10-26T03:09:48.114Z,13.75
2022-10-26T03:14:50.795Z,11.27
2022-10-26T03:19:53.509Z,13.10
2022-10-26T03:24:56.329Z,12.15
2022-10-26T03:29:59.069Z,12.75
2022-10-26T03:35:01.758Z,10.80
2022-10-26T03:40:05.646Z,12.68
2022-10-26T03:45:09.448Z,9.65
2022-10-26T03:50:13.260Z,9.05
2022-10-26T03:55:16.289Z,21.40
2022-10-26T04:00:19.347Z,10.27
2022-10-26T04:05:22.663Z,11.52
2022-10-26T04:10:26.962Z,15.05
2022-10-26T04:15:29.770Z,11.17
2022-10-26T04:20:34.528Z,12.20
2022-10-26T04:25:37.238Z,9.02
2022-10-26T04:30:40.471Z,9.57
2022-10-26T04:35:43.461Z,11.30
2022-10-26T04:40:46.259Z,9.20
2022-10-26T04:45:49.034Z,13.57
2022-10-26T04:50:51.725Z,15.55
2022-10-26T04:56:01.406Z,10.45
2022-10-26T05:01:04.299Z,17.77
2022-10-26T05:06:07.203Z,15.25
2022-10-26T05:11:10.029Z,9.10
2022-10-26T05:16:12.677Z,11.35
2022-10-26T05:21:19.791Z,13.23
2022-10-26T05:26:23.883Z,14.02
2022-10-26T05:31:26.712Z,9.60
2022-10-26T05:36:29.458Z,9.80
2022-10-26T05:41:32.197Z,9.48
2022-10-26T05:46:34.866Z,10.70
2022-10-26T05:51:37.675Z,5.97
2022-10-26T05:56:41.530Z,11.98
2022-10-26T06:02:16.044Z,15.70
2022-10-26T06:07:22.961Z,14.60
2022-10-26T06:12:27.668Z,11.25
2022-10-26T06:17:54.312Z,14.60
2022-10-26T06:23:04.174Z,10.50
2022-10-26T06:28:57.731Z,12.88
2022-10-26T06:34:01.964Z,12.03
2022-10-26T06:39:11.078Z,10.27
2022-10-26T06:44:22.968Z,8.02
2022-10-26T06:49:32.115Z,10.38
2022-10-26T06:54:52.659Z,9.60
2022-10-26T07:00:01.106Z,10.23
2022-10-26T07:05:06.657Z,12.52
2022-10-26T07:10:11.038Z,10.10
2022-10-26T07:15:14.682Z,7.70
2022-10-26T07:20:19.964Z,7.25
2022-10-26T07:30:29.975Z,11.98
2022-10-26T07:35:34.552Z,14.07
2022-10-26T07:40:38.426Z,16.00
2022-10-26T07:45:41.092Z,12.80
2022-10-26T07:50:43.836Z,18.13
2022-10-26T07:55:56.648Z,7.22
2022-10-26T08:01:08.468Z,11.00
2022-10-26T08:06:11.328Z,11.63
2022-10-26T08:11:14.111Z,11.20
2022-10-26T08:16:17.971Z,14.07
2022-10-26T08:21:30.373Z,12.77
2022-10-26T08:26:38.850Z,6.93
2022-10-26T08:31:41.681Z,13.15
2022-10-26T08:36:44.413Z,8.85
2022-10-26T08:41:48.401Z,10.10
2022-10-26T08:46:55.824Z,15.73
2022-10-26T08:52:02.615Z,9.27
2022-10-26T08:57:17.005Z,11.13
2022-10-26T09:02:20.010Z,26.60
2022-10-26T09:07:36.485Z,17.02
2022-10-26T09:12:57.165Z,9.93
2022-10-26T09:18:24.905Z,15.93
2022-10-26T09:23:32.485Z,15.57
2022-10-26T09:28:37.389Z,18.48
2022-10-26T09:33:40.682Z,11.05
2022-10-26T09:39:03.930Z,15.90
2022-10-26T09:44:27.562Z,17.98
2022-10-26T09:49:54.427Z,9.93
2022-10-26T09:54:57.118Z,11.25
2022-10-26T09:59:59.935Z,14.25
2022-10-26T10:05:03.364Z,15.73
2022-10-26T10:10:20.691Z,19.58
2022-10-26T10:15:25.585Z,27.83
2022-10-26T10:20:32.620Z,15.38
2022-10-26T10:25:37.591Z,17.50
2022-10-26T10:31:39.991Z,29.98
2022-10-26T10:36:42.713Z,20.08
2022-10-26T10:41:45.984Z,25.38
2022-10-26T10:46:48.793Z,31.80
2022-10-26T10:51:51.991Z,27.00
2022-10-26T10:57:15.149Z,25.60
2022-10-26T11:02:34.945Z,32.42
2022-10-26T11:07:48.285Z,20.50
2022-10-26T11:12:55.716Z,24.77
2022-10-26T11:18:14.659Z,23.30
2022-10-26T11:23:21.392Z,25.75
2022-10-26T11:28:35.164Z,32.88
2022-10-26T11:33:42.872Z,26.88
2022-10-26T11:38:57.305Z,31.98
2022-10-26T11:44:17.646Z,20.58
2022-10-26T11:49:24.788Z,25.00
2022-10-26T11:54:48.016Z,25.05
2022-10-26T11:59:54.114Z,15.18
2022-10-26T12:05:22.981Z,16.02
2022-10-26T12:10:32.635Z,19.63
2022-10-26T12:16:02.924Z,33.10
2022-10-26T12:21:08.786Z,48.58
2022-10-26T12:26:23.611Z,33.10
2022-10-26T12:31:31.830Z,31.40
2022-10-26T12:36:56.717Z,41.97
2022-10-26T12:47:26.601Z,31.08
2022-10-26T12:52:32.340Z,35.10
2022-10-26T12:57:44.210Z,31.38
2022-10-26T13:02:55.832Z,26.83
2022-10-26T13:08:07.789Z,26.08
2022-10-26T13:13:22.769Z,19.80
2022-10-26T13:18:25.845Z,24.40
2022-10-26T13:23:30.121Z,31.42
2022-10-26T13:28:38.987Z,25.87
2022-10-26T13:33:42.779Z,39.05
2022-10-26T13:38:47.529Z,26.52
2022-10-26T13:43:51.514Z,28.20
2022-10-26T13:49:00.367Z,24.30
2022-10-26T13:54:35.550Z,22.27
2022-10-26T13:59:41.853Z,33.33
2022-10-26T14:04:49.344Z,29.17
2022-10-26T14:09:53.912Z,29.40
2022-10-26T14:15:06.782Z,32.28
2022-10-26T14:20:19.407Z,30.42
2022-10-26T14:25:41.628Z,36.72
2022-10-26T14:30:45.559Z,27.83
2022-10-26T14:35:48.665Z,30.38
2022-10-26T14:40:52.736Z,33.65
2022-10-26T14:45:57.294Z,32.10
2022-10-26T14:51:19.787Z,35.07
2022-10-26T14:56:38.573Z,36.70
2022-10-26T15:02:04.315Z,34.60
2022-10-26T15:07:12.826Z,30.83
2022-10-26T15:12:38.955Z,30.13
2022-10-26T15:17:48.467Z,30.92
2022-10-26T15:22:56.306Z,32.40
2022-10-26T15:28:19.138Z,32.47
2022-10-26T15:33:22.483Z,29.00
2022-10-26T15:38:28.595Z,32.88
2022-10-26T15:43:32.590Z,32.60
2022-10-26T15:48:36.507Z,33.60
2022-10-26T15:53:39.102Z,33.88
2022-10-26T15:58:41.793Z,34.72
2022-10-26T16:03:44.859Z,33.67
2022-10-26T16:08:52.338Z,31.88
2022-10-26T16:13:57.088Z,31.15
2022-10-26T16:19:25.349Z,31.45
2022-10-26T16:24:25.198Z,34.35
2022-10-26T16:29:27.969Z,31.90
2022-10-26T16:34:30.610Z,31.38
2022-10-26T16:39:33.319Z,34.25
2022-10-26T16:44:36.875Z,41.47
2022-10-26T16:49:43.602Z,37.58
2022-10-26T16:54:46.289Z,35.45
2022-10-26T16:59:48.962Z,33.53
2022-10-26T17:04:51.699Z,42.13
2022-10-26T17:09:54.471Z,38.30
2022-10-26T17:14:59.246Z,41.92
2022-10-26T17:20:02.167Z,46.58
2022-10-26T17:25:05.961Z,39.67
2022-10-26T17:30:09.030Z,45.80
2022-10-26T17:35:11.702Z,44.63
2022-10-26T17:40:14.534Z,36.72
2022-10-26T17:45:17.248Z,34.88
2022-10-26T17:50:20.039Z,41.45
2022-10-26T17:55:22.742Z,34.90
2022-10-26T18:00:25.455Z,29.95
2022-10-26T18:05:31.874Z,38.67
2022-10-26T18:10:37.811Z,37.72
2022-10-26T18:15:41.056Z,33.65
2022-10-26T18:20:43.688Z,38.75
2022-10-26T18:25:46.677Z,32.00
2022-10-26T18:30:49.376Z,35.83
2022-10-26T18:35:52.313Z,32.92
2022-10-26T18:40:55.182Z,36.25
2022-10-26T18:46:09.289Z,34.58
2022-10-26T18:51:13.950Z,30.07
2022-10-26T18:56:18.669Z,38.92
2022-10-26T19:01:24.366Z,42.42
2022-10-26T19:06:31.491Z,37.67
2022-10-26T19:11:34.461Z,33.63
2022-10-26T19:16:45.902Z,35.05
2022-10-26T19:21:50.421Z,35.17
2022-10-26T19:26:54.429Z,41.35
2022-10-26T19:31:57.105Z,31.33
2022-10-26T19:36:59.789Z,37.58
2022-10-26T19:42:02.545Z,36.22
2022-10-26T19:47:05.549Z,31.50
2022-10-26T19:52:08.231Z,34.30
2022-10-26T19:57:10.904Z,32.05
2022-10-26T20:02:13.560Z,35.50
2022-10-26T20:07:17.503Z,34.65
2022-10-26T20:12:20.151Z,33.15
2022-10-26T20:17:27.541Z,33.20
2022-10-26T20:22:31.112Z,33.22
2022-10-26T20:27:33.849Z,28.65
2022-10-26T20:32:36.611Z,30.02
2022-10-26T20:37:39.509Z,33.30
2022-10-26T20:42:42.890Z,35.50
2022-10-26T20:47:45.859Z,34.03
2022-10-26T20:52:52.144Z,33.15
2022-10-26T20:58:21.714Z,34.15
2022-10-26T21:03:24.381Z,32.72
2022-10-26T21:08:27.026Z,36.58
2022-10-26T21:13:30.085Z,34.20
2022-10-26T21:18:33.663Z,30.80
2022-10-26T21:23:38.058Z,25.60
2022-10-26T21:28:42.379Z,34.73
2022-10-26T21:33:46.553Z,31.77
2022-10-26T21:38:49.275Z,30.90
2022-10-26T21:44:03.209Z,27.08
2022-10-26T21:49:11.747Z,37.22
2022-10-26T21:54:14.409Z,33.22
2022-10-26T21:59:17.056Z,28.55
2022-10-26T22:04:19.869Z,30.55
2022-10-26T22:09:22.568Z,36.03
2022-10-26T22:14:25.208Z,27.65
2022-10-26T22:19:27.936Z,26.92
2022-10-26T22:24:30.686Z,33.25
2022-10-26T22:29:33.406Z,28.27
2022-10-26T22:34:36.100Z,29.45
2022-10-26T22:39:38.919Z,33.22
2022-10-26T22:44:41.564Z,28.60
2022-10-26T22:49:44.280Z,26.40
2022-10-26T22:54:46.908Z,25.67
2022-10-26T22:59:49.539Z,28.40
2022-10-26T23:04:52.256Z,29.38
2022-10-26T23:09:54.851Z,27.23
2022-10-26T23:14:57.585Z,33.10
2022-10-26T23:20:00.220Z,26.90
2022-10-26T23:25:02.904Z,29.52
2022-10-26T23:30:06.528Z,19.60
2022-10-26T23:35:09.495Z,28.48
2022-10-26T23:40:12.385Z,25.33
2022-10-26T23:45:15.217Z,25.67
2022-10-26T23:50:18.072Z,17.70
2022-10-26T23:55:20.758Z,21.75
